Portada
METAR-TAF:

METAR-TAF

Aeropuertos :

Avalon, California, Estados Unidos

latitud: 33-24-18N, longitud: 118-24-57W, altitud: 488 m

Observación

El informe se hizo hace 1 hora y 1 minutos, a las 01:51 UTC
Viento 8 kt del oeste-suroeste
Temperatura 13°C
Humedad 67%
Presión 1022 hPa
Visibilidad: 16.1 km
Cielo despejado

METAR: KAVX 310151Z AUTO 24008KT 10SM CLR 13/07 A3017 RMK AO2 SLP215 T01280067

Hora: 19:52 (02:52 UTC)


TAF: falta

Observaciones y pronósticos meteorológicos de más de 4000 aeropuertos (mensajes METAR y TAF).

Los puntos amarillos y rojos representan las estaciones disponibles.

Ponga el ratón en el punto deseado para ver el nombre de la estación.

Haga clic para ver las observaciones y los pronósticos meteorológicos.

Para cambiar el mapa : haga clic en los botones verdes con una cruz de color negro para hacer un zoom, en el botón verde con un guión para alejar o en las flechas verdes para mapas adyacentes.


METAR-TAF: